<?xml version="1.0" encoding="utf-8"?>
<gpx xmlns:xsi="http://www.w3.org/2001/XMLSchema-instance" xmlns:xsd="http://www.w3.org/2001/XMLSchema" version="1.1" creator="Shapelink.com" xmlns="http://www.topografix.com/GPX/1/1" xmlns:gpxtpx="http://www.garmin.com/xmlschemas/TrackPointExtension/v1">
  <metadata>
    <name>Ejecutar 3.96 km, 2020-01-30</name>
    <desc></desc>
    <author><name>Per Rooth</name></author> 
    <time>2020-01-30T18:21:20Z</time>
  </metadata>
  <trk>
    <name>Ejecutar 3.96 km, 2020-01-30</name>
    <trkseg>
      <trkpt lat="56.898961069976" lon="14.920248285097">
        <ele>211.4</ele>
        <time>2020-01-30T18:21:20Z</time>
      </trkpt>
      <trkpt lat="56.898951263153" lon="14.920234454962">
        <ele>209.8</ele>
        <time>2020-01-30T18:21:21Z</time>
      </trkpt>
      <trkpt lat="56.898915975354" lon="14.920203693389">
        <ele>209.8</ele>
        <time>2020-01-30T18:21:23Z</time>
      </trkpt>
      <trkpt lat="56.898758563272" lon="14.919951649656">
        <ele>209.8</ele>
        <time>2020-01-30T18:21:29Z</time>
      </trkpt>
      <trkpt lat="56.898635684618" lon="14.919705557072">
        <ele>209</ele>
        <time>2020-01-30T18:21:34Z</time>
      </trkpt>
      <trkpt lat="56.898475003595" lon="14.919491902441">
        <ele>209.4</ele>
        <time>2020-01-30T18:21:40Z</time>
      </trkpt>
      <trkpt lat="56.898392860975" lon="14.919261986924">
        <ele>210.2</ele>
        <time>2020-01-30T18:21:45Z</time>
      </trkpt>
      <trkpt lat="56.898406272015" lon="14.919157129355">
        <ele>211</ele>
        <time>2020-01-30T18:21:47Z</time>
      </trkpt>
      <trkpt lat="56.898438793787" lon="14.918814980197">
        <ele>212</ele>
        <time>2020-01-30T18:21:53Z</time>
      </trkpt>
      <trkpt lat="56.898441978909" lon="14.918760581666">
        <ele>212</ele>
        <time>2020-01-30T18:21:54Z</time>
      </trkpt>
      <trkpt lat="56.898452121008" lon="14.918607611991">
        <ele>213</ele>
        <time>2020-01-30T18:21:57Z</time>
      </trkpt>
      <trkpt lat="56.898457736881" lon="14.918266468661">
        <ele>213.8</ele>
        <time>2020-01-30T18:22:03Z</time>
      </trkpt>
      <trkpt lat="56.898475590328" lon="14.917918787449">
        <ele>212</ele>
        <time>2020-01-30T18:22:09Z</time>
      </trkpt>
      <trkpt lat="56.898511632498" lon="14.917588289132">
        <ele>210.8</ele>
        <time>2020-01-30T18:22:15Z</time>
      </trkpt>
      <trkpt lat="56.898515152896" lon="14.91753816537">
        <ele>210</ele>
        <time>2020-01-30T18:22:16Z</time>
      </trkpt>
      <trkpt lat="56.898512889783" lon="14.917492567834">
        <ele>209.4</ele>
        <time>2020-01-30T18:22:17Z</time>
      </trkpt>
      <trkpt lat="56.898500484571" lon="14.917372790483">
        <ele>208.2</ele>
        <time>2020-01-30T18:22:20Z</time>
      </trkpt>
      <trkpt lat="56.89847626088" lon="14.91730011941">
        <ele>207.6</ele>
        <time>2020-01-30T18:22:22Z</time>
      </trkpt>
      <trkpt lat="56.898423371091" lon="14.917219736989">
        <ele>207.2</ele>
        <time>2020-01-30T18:22:25Z</time>
      </trkpt>
      <trkpt lat="56.898325470499" lon="14.917107251891">
        <ele>205.8</ele>
        <time>2020-01-30T18:22:29Z</time>
      </trkpt>
      <trkpt lat="56.898171662634" lon="14.916973560586">
        <ele>204.8</ele>
        <time>2020-01-30T18:22:35Z</time>
      </trkpt>
      <trkpt lat="56.897973430699" lon="14.916969537274">
        <ele>204.8</ele>
        <time>2020-01-30T18:22:42Z</time>
      </trkpt>
      <trkpt lat="56.897899250884" lon="14.917008010195">
        <ele>203.4</ele>
        <time>2020-01-30T18:22:45Z</time>
      </trkpt>
      <trkpt lat="56.897790286184" lon="14.917051596075">
        <ele>202.6</ele>
        <time>2020-01-30T18:22:49Z</time>
      </trkpt>
      <trkpt lat="56.897735217101" lon="14.917061067622">
        <ele>202.2</ele>
        <time>2020-01-30T18:22:51Z</time>
      </trkpt>
      <trkpt lat="56.897663384218" lon="14.917074478662">
        <ele>201.2</ele>
        <time>2020-01-30T18:22:54Z</time>
      </trkpt>
      <trkpt lat="56.897459620229" lon="14.91709811562">
        <ele>201</ele>
        <time>2020-01-30T18:23:00Z</time>
      </trkpt>
      <trkpt lat="56.897265495425" lon="14.917077244689">
        <ele>200.4</ele>
        <time>2020-01-30T18:23:06Z</time>
      </trkpt>
      <trkpt lat="56.897250072729" lon="14.917066683495">
        <ele>200.4</ele>
        <time>2020-01-30T18:23:07Z</time>
      </trkpt>
      <trkpt lat="56.897219311156" lon="14.917054110645">
        <ele>200.6</ele>
        <time>2020-01-30T18:23:09Z</time>
      </trkpt>
      <trkpt lat="56.897038429754" lon="14.916924191195">
        <ele>201</ele>
        <time>2020-01-30T18:23:18Z</time>
      </trkpt>
      <trkpt lat="56.89693399128" lon="14.916771892072">
        <ele>200.8</ele>
        <time>2020-01-30T18:23:24Z</time>
      </trkpt>
      <trkpt lat="56.896868361003" lon="14.916677260421">
        <ele>200</ele>
        <time>2020-01-30T18:23:28Z</time>
      </trkpt>
      <trkpt lat="56.896802982183" lon="14.916612049239">
        <ele>198.8</ele>
        <time>2020-01-30T18:23:32Z</time>
      </trkpt>
      <trkpt lat="56.896703405211" lon="14.916581874399">
        <ele>197.8</ele>
        <time>2020-01-30T18:23:37Z</time>
      </trkpt>
      <trkpt lat="56.896692424922" lon="14.916579527467">
        <ele>197.6</ele>
        <time>2020-01-30T18:23:38Z</time>
      </trkpt>
      <trkpt lat="56.896678510968" lon="14.916540383994">
        <ele>197</ele>
        <time>2020-01-30T18:23:43Z</time>
      </trkpt>
      <trkpt lat="56.896663339729" lon="14.916541473641">
        <ele>196.8</ele>
        <time>2020-01-30T18:23:45Z</time>
      </trkpt>
      <trkpt lat="56.896646324472" lon="14.916653372006">
        <ele>197</ele>
        <time>2020-01-30T18:23:50Z</time>
      </trkpt>
      <trkpt lat="56.896687731058" lon="14.91698412178">
        <ele>198.2</ele>
        <time>2020-01-30T18:24:00Z</time>
      </trkpt>
      <trkpt lat="56.89672109102" lon="14.917289977311">
        <ele>198.4</ele>
        <time>2020-01-30T18:24:08Z</time>
      </trkpt>
      <trkpt lat="56.896742716322" lon="14.917395170156">
        <ele>198.4</ele>
        <time>2020-01-30T18:24:11Z</time>
      </trkpt>
      <trkpt lat="56.896738441553" lon="14.917485694676">
        <ele>197</ele>
        <time>2020-01-30T18:24:15Z</time>
      </trkpt>
      <trkpt lat="56.896739782657" lon="14.917506817064">
        <ele>196.6</ele>
        <time>2020-01-30T18:24:17Z</time>
      </trkpt>
      <trkpt lat="56.896759144846" lon="14.917620140352">
        <ele>196.6</ele>
        <time>2020-01-30T18:24:27Z</time>
      </trkpt>
      <trkpt lat="56.896766269461" lon="14.917690548312">
        <ele>196.4</ele>
        <time>2020-01-30T18:24:32Z</time>
      </trkpt>
      <trkpt lat="56.896766269461" lon="14.917707312112">
        <ele>196.4</ele>
        <time>2020-01-30T18:24:33Z</time>
      </trkpt>
      <trkpt lat="56.896760569769" lon="14.917750897992">
        <ele>196.4</ele>
        <time>2020-01-30T18:24:36Z</time>
      </trkpt>
      <trkpt lat="56.896770795687" lon="14.917799345374">
        <ele>196.2</ele>
        <time>2020-01-30T18:24:40Z</time>
      </trkpt>
      <trkpt lat="56.896766688556" lon="14.917855085009">
        <ele>196.2</ele>
        <time>2020-01-30T18:24:43Z</time>
      </trkpt>
      <trkpt lat="56.896730897843" lon="14.918086928363">
        <ele>196.2</ele>
        <time>2020-01-30T18:24:49Z</time>
      </trkpt>
      <trkpt lat="56.896664261738" lon="14.918235371812">
        <ele>196.4</ele>
        <time>2020-01-30T18:24:53Z</time>
      </trkpt>
      <trkpt lat="56.896491762236" lon="14.918414744472">
        <ele>196.8</ele>
        <time>2020-01-30T18:24:59Z</time>
      </trkpt>
      <trkpt lat="56.89632378896" lon="14.918553548736">
        <ele>196.8</ele>
        <time>2020-01-30T18:25:06Z</time>
      </trkpt>
      <trkpt lat="56.89616034191" lon="14.918695873398">
        <ele>196.8</ele>
        <time>2020-01-30T18:25:11Z</time>
      </trkpt>
      <trkpt lat="56.896000834353" lon="14.918934170815">
        <ele>196</ele>
        <time>2020-01-30T18:25:16Z</time>
      </trkpt>
      <trkpt lat="56.895978957594" lon="14.918963423646">
        <ele>195.8</ele>
        <time>2020-01-30T18:25:17Z</time>
      </trkpt>
      <trkpt lat="56.895958002844" lon="14.918994688133">
        <ele>195.6</ele>
        <time>2020-01-30T18:25:18Z</time>
      </trkpt>
      <trkpt lat="56.895853732008" lon="14.919283779864">
        <ele>195</ele>
        <time>2020-01-30T18:25:25Z</time>
      </trkpt>
      <trkpt lat="56.895826826109" lon="14.919454351529">
        <ele>194.8</ele>
        <time>2020-01-30T18:25:32Z</time>
      </trkpt>
      <trkpt lat="56.895843254633" lon="14.91980379294">
        <ele>194.8</ele>
        <time>2020-01-30T18:25:41Z</time>
      </trkpt>
      <trkpt lat="56.895850127791" lon="14.920043347642">
        <ele>194.4</ele>
        <time>2020-01-30T18:25:46Z</time>
      </trkpt>
      <trkpt lat="56.895863119736" lon="14.920372421036">
        <ele>194.2</ele>
        <time>2020-01-30T18:25:54Z</time>
      </trkpt>
      <trkpt lat="56.895737977969" lon="14.920625722054">
        <ele>194.4</ele>
        <time>2020-01-30T18:25:59Z</time>
      </trkpt>
      <trkpt lat="56.895785084247" lon="14.920992430179">
        <ele>194.4</ele>
        <time>2020-01-30T18:26:08Z</time>
      </trkpt>
      <trkpt lat="56.895851804171" lon="14.921205665715">
        <ele>195.4</ele>
        <time>2020-01-30T18:26:14Z</time>
      </trkpt>
      <trkpt lat="56.895854486379" lon="14.921237014021">
        <ele>195.4</ele>
        <time>2020-01-30T18:26:15Z</time>
      </trkpt>
      <trkpt lat="56.895848786687" lon="14.921387888221">
        <ele>194.6</ele>
        <time>2020-01-30T18:26:20Z</time>
      </trkpt>
      <trkpt lat="56.89579321469" lon="14.921707238611">
        <ele>193</ele>
        <time>2020-01-30T18:26:30Z</time>
      </trkpt>
      <trkpt lat="56.895776869985" lon="14.921780580236">
        <ele>192.6</ele>
        <time>2020-01-30T18:26:33Z</time>
      </trkpt>
      <trkpt lat="56.895717107038" lon="14.921973950669">
        <ele>192.2</ele>
        <time>2020-01-30T18:26:42Z</time>
      </trkpt>
      <trkpt lat="56.895710988251" lon="14.92199901255">
        <ele>192</ele>
        <time>2020-01-30T18:26:44Z</time>
      </trkpt>
      <trkpt lat="56.895709563328" lon="14.922021978956">
        <ele>191.8</ele>
        <time>2020-01-30T18:26:46Z</time>
      </trkpt>
      <trkpt lat="56.895705623835" lon="14.922029355028">
        <ele>191.8</ele>
        <time>2020-01-30T18:26:47Z</time>
      </trkpt>
      <trkpt lat="56.89570436655" lon="14.922051734701">
        <ele>191.6</ele>
        <time>2020-01-30T18:26:49Z</time>
      </trkpt>
      <trkpt lat="56.895653739874" lon="14.922288774833">
        <ele>191.4</ele>
        <time>2020-01-30T18:27:04Z</time>
      </trkpt>
      <trkpt lat="56.89563228221" lon="14.922328002125">
        <ele>191.6</ele>
        <time>2020-01-30T18:27:08Z</time>
      </trkpt>
      <trkpt lat="56.895569669417" lon="14.92238960909">
        <ele>192.6</ele>
        <time>2020-01-30T18:27:18Z</time>
      </trkpt>
      <trkpt lat="56.895533208152" lon="14.922424561613">
        <ele>192.6</ele>
        <time>2020-01-30T18:27:23Z</time>
      </trkpt>
      <trkpt lat="56.895514348877" lon="14.922452892435">
        <ele>192.6</ele>
        <time>2020-01-30T18:27:25Z</time>
      </trkpt>
      <trkpt lat="56.895442767451" lon="14.922630421077">
        <ele>193</ele>
        <time>2020-01-30T18:27:29Z</time>
      </trkpt>
      <trkpt lat="56.895407982566" lon="14.922781630553">
        <ele>194.4</ele>
        <time>2020-01-30T18:27:33Z</time>
      </trkpt>
      <trkpt lat="56.895377723907" lon="14.922942311576">
        <ele>195.6</ele>
        <time>2020-01-30T18:27:37Z</time>
      </trkpt>
      <trkpt lat="56.895402115236" lon="14.923142806624">
        <ele>196.8</ele>
        <time>2020-01-30T18:27:41Z</time>
      </trkpt>
      <trkpt lat="56.895415777733" lon="14.923332991935">
        <ele>197.2</ele>
        <time>2020-01-30T18:27:47Z</time>
      </trkpt>
      <trkpt lat="56.895423069986" lon="14.923381439317">
        <ele>197.6</ele>
        <time>2020-01-30T18:27:49Z</time>
      </trkpt>
      <trkpt lat="56.895444360012" lon="14.92348093247">
        <ele>198</ele>
        <time>2020-01-30T18:27:52Z</time>
      </trkpt>
      <trkpt lat="56.8954403367" lon="14.923713027281">
        <ele>199</ele>
        <time>2020-01-30T18:27:59Z</time>
      </trkpt>
      <trkpt lat="56.895445030564" lon="14.923885526783">
        <ele>199</ele>
        <time>2020-01-30T18:28:04Z</time>
      </trkpt>
      <trkpt lat="56.895451400808" lon="14.924031790938">
        <ele>198.4</ele>
        <time>2020-01-30T18:28:08Z</time>
      </trkpt>
      <trkpt lat="56.895437319216" lon="14.924134972127">
        <ele>197.8</ele>
        <time>2020-01-30T18:28:11Z</time>
      </trkpt>
      <trkpt lat="56.895438576501" lon="14.924280398092">
        <ele>197.4</ele>
        <time>2020-01-30T18:28:15Z</time>
      </trkpt>
      <trkpt lat="56.89542608747" lon="14.924374862105">
        <ele>197.4</ele>
        <time>2020-01-30T18:28:18Z</time>
      </trkpt>
      <trkpt lat="56.895371856577" lon="14.924497740759">
        <ele>197.2</ele>
        <time>2020-01-30T18:28:24Z</time>
      </trkpt>
      <trkpt lat="56.895342939022" lon="14.924578290818">
        <ele>197.8</ele>
        <time>2020-01-30T18:28:28Z</time>
      </trkpt>
      <trkpt lat="56.895325839946" lon="14.924661187809">
        <ele>198.6</ele>
        <time>2020-01-30T18:28:31Z</time>
      </trkpt>
      <trkpt lat="56.895241769489" lon="14.924967630073">
        <ele>199</ele>
        <time>2020-01-30T18:28:40Z</time>
      </trkpt>
      <trkpt lat="56.895192148641" lon="14.925092101288">
        <ele>199.2</ele>
        <time>2020-01-30T18:28:44Z</time>
      </trkpt>
      <trkpt lat="56.895180413981" lon="14.925113139857">
        <ele>199.4</ele>
        <time>2020-01-30T18:28:46Z</time>
      </trkpt>
      <trkpt lat="56.895159123955" lon="14.925138453195">
        <ele>199.4</ele>
        <time>2020-01-30T18:28:48Z</time>
      </trkpt>
      <trkpt lat="56.895089554185" lon="14.925138537014">
        <ele>200</ele>
        <time>2020-01-30T18:28:58Z</time>
      </trkpt>
      <trkpt lat="56.895068683254" lon="14.925133088779">
        <ele>200.4</ele>
        <time>2020-01-30T18:29:00Z</time>
      </trkpt>
      <trkpt lat="56.895050745988" lon="14.925124455422">
        <ele>201</ele>
        <time>2020-01-30T18:29:02Z</time>
      </trkpt>
      <trkpt lat="56.895039346604" lon="14.92511791754">
        <ele>201.2</ele>
        <time>2020-01-30T18:29:03Z</time>
      </trkpt>
      <trkpt lat="56.895025851745" lon="14.92510869745">
        <ele>201.4</ele>
        <time>2020-01-30T18:29:04Z</time>
      </trkpt>
      <trkpt lat="56.894985115711" lon="14.925089167623">
        <ele>201.8</ele>
        <time>2020-01-30T18:29:06Z</time>
      </trkpt>
      <trkpt lat="56.894964747694" lon="14.925071397995">
        <ele>202.2</ele>
        <time>2020-01-30T18:29:07Z</time>
      </trkpt>
      <trkpt lat="56.894892244259" lon="14.92497458705">
        <ele>203.4</ele>
        <time>2020-01-30T18:29:11Z</time>
      </trkpt>
      <trkpt lat="56.894839438289" lon="14.92488573891">
        <ele>204.8</ele>
        <time>2020-01-30T18:29:14Z</time>
      </trkpt>
      <trkpt lat="56.894810101639" lon="14.924826562696">
        <ele>206</ele>
        <time>2020-01-30T18:29:16Z</time>
      </trkpt>
      <trkpt lat="56.894698203274" lon="14.924616512282">
        <ele>207.2</ele>
        <time>2020-01-30T18:29:23Z</time>
      </trkpt>
      <trkpt lat="56.89460969041" lon="14.92434342998">
        <ele>208.4</ele>
        <time>2020-01-30T18:29:31Z</time>
      </trkpt>
      <trkpt lat="56.894485135376" lon="14.924100773975">
        <ele>209</ele>
        <time>2020-01-30T18:29:40Z</time>
      </trkpt>
      <trkpt lat="56.894359406876" lon="14.923862476558">
        <ele>209.2</ele>
        <time>2020-01-30T18:29:47Z</time>
      </trkpt>
      <trkpt lat="56.894335434642" lon="14.923827859311">
        <ele>209.4</ele>
        <time>2020-01-30T18:29:48Z</time>
      </trkpt>
      <trkpt lat="56.89420316826" lon="14.923672207428">
        <ele>209.6</ele>
        <time>2020-01-30T18:29:57Z</time>
      </trkpt>
      <trkpt lat="56.894181794415" lon="14.923648738108">
        <ele>209.6</ele>
        <time>2020-01-30T18:29:59Z</time>
      </trkpt>
      <trkpt lat="56.89405313225" lon="14.923462576109">
        <ele>208.8</ele>
        <time>2020-01-30T18:30:10Z</time>
      </trkpt>
      <trkpt lat="56.894017760632" lon="14.923441705178">
        <ele>208.2</ele>
        <time>2020-01-30T18:30:13Z</time>
      </trkpt>
      <trkpt lat="56.893968810336" lon="14.923391413778">
        <ele>207.6</ele>
        <time>2020-01-30T18:30:17Z</time>
      </trkpt>
      <trkpt lat="56.893930672691" lon="14.92333676379">
        <ele>206.8</ele>
        <time>2020-01-30T18:30:19Z</time>
      </trkpt>
      <trkpt lat="56.893864874776" lon="14.923223859597">
        <ele>205.8</ele>
        <time>2020-01-30T18:30:23Z</time>
      </trkpt>
      <trkpt lat="56.893769740211" lon="14.923138448036">
        <ele>204.8</ele>
        <time>2020-01-30T18:30:28Z</time>
      </trkpt>
      <trkpt lat="56.893761190673" lon="14.923121097503">
        <ele>204.6</ele>
        <time>2020-01-30T18:30:29Z</time>
      </trkpt>
      <trkpt lat="56.893684244831" lon="14.923099639839">
        <ele>204.4</ele>
        <time>2020-01-30T18:30:33Z</time>
      </trkpt>
      <trkpt lat="56.893593133578" lon="14.923092766681">
        <ele>203.8</ele>
        <time>2020-01-30T18:30:38Z</time>
      </trkpt>
      <trkpt lat="56.89355357101" lon="14.923072231026">
        <ele>203.4</ele>
        <time>2020-01-30T18:30:40Z</time>
      </trkpt>
      <trkpt lat="56.893458520264" lon="14.922946921621">
        <ele>203</ele>
        <time>2020-01-30T18:30:44Z</time>
      </trkpt>
      <trkpt lat="56.893378137843" lon="14.922874250548">
        <ele>202.6</ele>
        <time>2020-01-30T18:30:47Z</time>
      </trkpt>
      <trkpt lat="56.893353411238" lon="14.922857486748">
        <ele>202.4</ele>
        <time>2020-01-30T18:30:48Z</time>
      </trkpt>
      <trkpt lat="56.8931939875" lon="14.922763358011">
        <ele>201.2</ele>
        <time>2020-01-30T18:30:54Z</time>
      </trkpt>
      <trkpt lat="56.893151407448" lon="14.922697811553">
        <ele>200.6</ele>
        <time>2020-01-30T18:30:57Z</time>
      </trkpt>
      <trkpt lat="56.893113688898" lon="14.922634863484">
        <ele>200.2</ele>
        <time>2020-01-30T18:30:59Z</time>
      </trkpt>
      <trkpt lat="56.893080245117" lon="14.922612316173">
        <ele>199.4</ele>
        <time>2020-01-30T18:31:01Z</time>
      </trkpt>
      <trkpt lat="56.893078149642" lon="14.922583063342">
        <ele>199</ele>
        <time>2020-01-30T18:31:02Z</time>
      </trkpt>
      <trkpt lat="56.893062307851" lon="14.922550122475">
        <ele>198.8</ele>
        <time>2020-01-30T18:31:04Z</time>
      </trkpt>
      <trkpt lat="56.892998186316" lon="14.922478289592">
        <ele>198.4</ele>
        <time>2020-01-30T18:31:09Z</time>
      </trkpt>
      <trkpt lat="56.892961054499" lon="14.922420957396">
        <ele>198</ele>
        <time>2020-01-30T18:31:11Z</time>
      </trkpt>
      <trkpt lat="56.892905566321" lon="14.922323559718">
        <ele>196.8</ele>
        <time>2020-01-30T18:31:15Z</time>
      </trkpt>
      <trkpt lat="56.892858795319" lon="14.922259019088">
        <ele>195.8</ele>
        <time>2020-01-30T18:31:18Z</time>
      </trkpt>
      <trkpt lat="56.892797104535" lon="14.922132620036">
        <ele>194.4</ele>
        <time>2020-01-30T18:31:23Z</time>
      </trkpt>
      <trkpt lat="56.892728037679" lon="14.922069504329">
        <ele>193.2</ele>
        <time>2020-01-30T18:31:26Z</time>
      </trkpt>
      <trkpt lat="56.892665424886" lon="14.922037066376">
        <ele>192</ele>
        <time>2020-01-30T18:31:29Z</time>
      </trkpt>
      <trkpt lat="56.892616809866" lon="14.921977471067">
        <ele>191.2</ele>
        <time>2020-01-30T18:31:33Z</time>
      </trkpt>
      <trkpt lat="56.892607757414" lon="14.921943859648">
        <ele>191</ele>
        <time>2020-01-30T18:31:34Z</time>
      </trkpt>
      <trkpt lat="56.892584791008" lon="14.921917121387">
        <ele>191</ele>
        <time>2020-01-30T18:31:35Z</time>
      </trkpt>
      <trkpt lat="56.892509773003" lon="14.921835481681">
        <ele>189.8</ele>
        <time>2020-01-30T18:31:39Z</time>
      </trkpt>
      <trkpt lat="56.892484962579" lon="14.921822070641">
        <ele>189.4</ele>
        <time>2020-01-30T18:31:40Z</time>
      </trkpt>
      <trkpt lat="56.89246308582" lon="14.921814275474">
        <ele>189.2</ele>
        <time>2020-01-30T18:31:41Z</time>
      </trkpt>
      <trkpt lat="56.892392426403" lon="14.921770354318">
        <ele>188.4</ele>
        <time>2020-01-30T18:31:44Z</time>
      </trkpt>
      <trkpt lat="56.892331992904" lon="14.921713441217">
        <ele>187</ele>
        <time>2020-01-30T18:31:47Z</time>
      </trkpt>
      <trkpt lat="56.892270888853" lon="14.921640770144">
        <ele>185.8</ele>
        <time>2020-01-30T18:31:50Z</time>
      </trkpt>
      <trkpt lat="56.892261584944" lon="14.921616127358">
        <ele>185.4</ele>
        <time>2020-01-30T18:31:51Z</time>
      </trkpt>
      <trkpt lat="56.89224180366" lon="14.921574553134">
        <ele>184.4</ele>
        <time>2020-01-30T18:31:53Z</time>
      </trkpt>
      <trkpt lat="56.892226800059" lon="14.921561225913">
        <ele>183.8</ele>
        <time>2020-01-30T18:31:54Z</time>
      </trkpt>
      <trkpt lat="56.892206683499" lon="14.921573044392">
        <ele>183.2</ele>
        <time>2020-01-30T18:31:55Z</time>
      </trkpt>
      <trkpt lat="56.892186734577" lon="14.921588047993">
        <ele>182.4</ele>
        <time>2020-01-30T18:31:57Z</time>
      </trkpt>
      <trkpt lat="56.892179107048" lon="14.921598776825">
        <ele>182.2</ele>
        <time>2020-01-30T18:31:58Z</time>
      </trkpt>
      <trkpt lat="56.8921630138" lon="14.921615792082">
        <ele>182.2</ele>
        <time>2020-01-30T18:31:59Z</time>
      </trkpt>
      <trkpt lat="56.892152033511" lon="14.921714447045">
        <ele>183.4</ele>
        <time>2020-01-30T18:32:10Z</time>
      </trkpt>
      <trkpt lat="56.892145998543" lon="14.921766666282">
        <ele>184.2</ele>
        <time>2020-01-30T18:32:14Z</time>
      </trkpt>
      <trkpt lat="56.892145160353" lon="14.92178275953">
        <ele>184.6</ele>
        <time>2020-01-30T18:32:15Z</time>
      </trkpt>
      <trkpt lat="56.892138203376" lon="14.921887449461">
        <ele>185.6</ele>
        <time>2020-01-30T18:32:19Z</time>
      </trkpt>
      <trkpt lat="56.892110878382" lon="14.921998761093">
        <ele>187</ele>
        <time>2020-01-30T18:32:22Z</time>
      </trkpt>
      <trkpt lat="56.892106771251" lon="14.922067157397">
        <ele>188</ele>
        <time>2020-01-30T18:32:24Z</time>
      </trkpt>
      <trkpt lat="56.892116410436" lon="14.922116610607">
        <ele>189</ele>
        <time>2020-01-30T18:32:26Z</time>
      </trkpt>
      <trkpt lat="56.892135604987" lon="14.922186515653">
        <ele>190.2</ele>
        <time>2020-01-30T18:32:29Z</time>
      </trkpt>
      <trkpt lat="56.892151865873" lon="14.922306544461">
        <ele>191.4</ele>
        <time>2020-01-30T18:32:33Z</time>
      </trkpt>
      <trkpt lat="56.892177011573" lon="14.922406624347">
        <ele>192</ele>
        <time>2020-01-30T18:32:36Z</time>
      </trkpt>
      <trkpt lat="56.892212047915" lon="14.922467728398">
        <ele>192.6</ele>
        <time>2020-01-30T18:32:38Z</time>
      </trkpt>
      <trkpt lat="56.89223425995" lon="14.922527491345">
        <ele>193.6</ele>
        <time>2020-01-30T18:32:40Z</time>
      </trkpt>
      <trkpt lat="56.892245743153" lon="14.922558169099">
        <ele>194.2</ele>
        <time>2020-01-30T18:32:41Z</time>
      </trkpt>
      <trkpt lat="56.892275163622" lon="14.922618686417">
        <ele>194.8</ele>
        <time>2020-01-30T18:32:43Z</time>
      </trkpt>
      <trkpt lat="56.89232729904" lon="14.922745085469">
        <ele>195.4</ele>
        <time>2020-01-30T18:32:47Z</time>
      </trkpt>
      <trkpt lat="56.892338698424" lon="14.922774003024">
        <ele>195.8</ele>
        <time>2020-01-30T18:32:48Z</time>
      </trkpt>
      <trkpt lat="56.892363592667" lon="14.922877268032">
        <ele>197</ele>
        <time>2020-01-30T18:32:51Z</time>
      </trkpt>
      <trkpt lat="56.89236334121" lon="14.922975755357">
        <ele>198.2</ele>
        <time>2020-01-30T18:32:53Z</time>
      </trkpt>
      <trkpt lat="56.892359485536" lon="14.923048761706">
        <ele>199.4</ele>
        <time>2020-01-30T18:32:55Z</time>
      </trkpt>
      <trkpt lat="56.892357725337" lon="14.923227379995">
        <ele>200.6</ele>
        <time>2020-01-30T18:33:00Z</time>
      </trkpt>
      <trkpt lat="56.892379518277" lon="14.923333243392">
        <ele>201.4</ele>
        <time>2020-01-30T18:33:03Z</time>
      </trkpt>
      <trkpt lat="56.892372477481" lon="14.923373057417">
        <ele>201.8</ele>
        <time>2020-01-30T18:33:04Z</time>
      </trkpt>
      <trkpt lat="56.892386642892" lon="14.923488643818">
        <ele>202</ele>
        <time>2020-01-30T18:33:07Z</time>
      </trkpt>
      <trkpt lat="56.892498708895" lon="14.923782010318">
        <ele>202.6</ele>
        <time>2020-01-30T18:33:15Z</time>
      </trkpt>
      <trkpt lat="56.892513963953" lon="14.923823500723">
        <ele>202.8</ele>
        <time>2020-01-30T18:33:16Z</time>
      </trkpt>
      <trkpt lat="56.892533577599" lon="14.923904553696">
        <ele>203</ele>
        <time>2020-01-30T18:33:18Z</time>
      </trkpt>
      <trkpt lat="56.892557968928" lon="14.923976386579">
        <ele>203.2</ele>
        <time>2020-01-30T18:33:20Z</time>
      </trkpt>
      <trkpt lat="56.892593089089" lon="14.924082501433">
        <ele>203.4</ele>
        <time>2020-01-30T18:33:23Z</time>
      </trkpt>
      <trkpt lat="56.892652432941" lon="14.924187275183">
        <ele>204</ele>
        <time>2020-01-30T18:33:26Z</time>
      </trkpt>
      <trkpt lat="56.892766929695" lon="14.924415598139">
        <ele>204.2</ele>
        <time>2020-01-30T18:33:34Z</time>
      </trkpt>
      <trkpt lat="56.892768270799" lon="14.924686333509">
        <ele>204</ele>
        <time>2020-01-30T18:33:42Z</time>
      </trkpt>
      <trkpt lat="56.89278159802" lon="14.924744587714">
        <ele>204</ele>
        <time>2020-01-30T18:33:44Z</time>
      </trkpt>
      <trkpt lat="56.89279920001" lon="14.924861599038">
        <ele>204</ele>
        <time>2020-01-30T18:33:47Z</time>
      </trkpt>
      <trkpt lat="56.892700545047" lon="14.925172986623">
        <ele>203.4</ele>
        <time>2020-01-30T18:33:54Z</time>
      </trkpt>
      <trkpt lat="56.892713117897" lon="14.925324782832">
        <ele>202.8</ele>
        <time>2020-01-30T18:33:57Z</time>
      </trkpt>
      <trkpt lat="56.892730049335" lon="14.925386305978">
        <ele>202.2</ele>
        <time>2020-01-30T18:33:59Z</time>
      </trkpt>
      <trkpt lat="56.892734240285" lon="14.925417821922">
        <ele>201.6</ele>
        <time>2020-01-30T18:34:00Z</time>
      </trkpt>
      <trkpt lat="56.892729294964" lon="14.925576323651">
        <ele>200.4</ele>
        <time>2020-01-30T18:34:04Z</time>
      </trkpt>
      <trkpt lat="56.892733150638" lon="14.925665171791">
        <ele>199.4</ele>
        <time>2020-01-30T18:34:07Z</time>
      </trkpt>
      <trkpt lat="56.892734910837" lon="14.925693334975">
        <ele>199.2</ele>
        <time>2020-01-30T18:34:08Z</time>
      </trkpt>
      <trkpt lat="56.892722002711" lon="14.925740022158">
        <ele>199</ele>
        <time>2020-01-30T18:34:10Z</time>
      </trkpt>
      <trkpt lat="56.892709346042" lon="14.925768688256">
        <ele>198.6</ele>
        <time>2020-01-30T18:34:12Z</time>
      </trkpt>
      <trkpt lat="56.89268352979" lon="14.925779668545">
        <ele>198.4</ele>
        <time>2020-01-30T18:34:16Z</time>
      </trkpt>
      <trkpt lat="56.892652600579" lon="14.925782769848">
        <ele>198.4</ele>
        <time>2020-01-30T18:34:19Z</time>
      </trkpt>
      <trkpt lat="56.892632316381" lon="14.925777237794">
        <ele>198.6</ele>
        <time>2020-01-30T18:34:21Z</time>
      </trkpt>
      <trkpt lat="56.892453446635" lon="14.925620915359">
        <ele>199.4</ele>
        <time>2020-01-30T18:34:31Z</time>
      </trkpt>
      <trkpt lat="56.892399970113" lon="14.925584118818">
        <ele>199.6</ele>
        <time>2020-01-30T18:34:34Z</time>
      </trkpt>
      <trkpt lat="56.892308188308" lon="14.925552519055">
        <ele>199.6</ele>
        <time>2020-01-30T18:34:41Z</time>
      </trkpt>
      <trkpt lat="56.892260327659" lon="14.925549501571">
        <ele>199.6</ele>
        <time>2020-01-30T18:34:45Z</time>
      </trkpt>
      <trkpt lat="56.892234846683" lon="14.925532570133">
        <ele>199.6</ele>
        <time>2020-01-30T18:34:47Z</time>
      </trkpt>
      <trkpt lat="56.892187153672" lon="14.925484625665">
        <ele>200</ele>
        <time>2020-01-30T18:34:51Z</time>
      </trkpt>
      <trkpt lat="56.892154380443" lon="14.925485128579">
        <ele>200</ele>
        <time>2020-01-30T18:34:53Z</time>
      </trkpt>
      <trkpt lat="56.892002751872" lon="14.92544481164">
        <ele>199.8</ele>
        <time>2020-01-30T18:34:59Z</time>
      </trkpt>
      <trkpt lat="56.891910634791" lon="14.925484458027">
        <ele>199.8</ele>
        <time>2020-01-30T18:35:04Z</time>
      </trkpt>
      <trkpt lat="56.891884399444" lon="14.925502898207">
        <ele>199.6</ele>
        <time>2020-01-30T18:35:07Z</time>
      </trkpt>
      <trkpt lat="56.891812566561" lon="14.925507843528">
        <ele>199.6</ele>
        <time>2020-01-30T18:35:11Z</time>
      </trkpt>
      <trkpt lat="56.891703518042" lon="14.925504574587">
        <ele>199.4</ele>
        <time>2020-01-30T18:35:16Z</time>
      </trkpt>
      <trkpt lat="56.891513919464" lon="14.925608593966">
        <ele>198.6</ele>
        <time>2020-01-30T18:35:22Z</time>
      </trkpt>
      <trkpt lat="56.891464717711" lon="14.92562837525">
        <ele>198</ele>
        <time>2020-01-30T18:35:24Z</time>
      </trkpt>
      <trkpt lat="56.89127956154" lon="14.92558143661">
        <ele>197.8</ele>
        <time>2020-01-30T18:35:30Z</time>
      </trkpt>
      <trkpt lat="56.891090465876" lon="14.925592165442">
        <ele>197.2</ele>
        <time>2020-01-30T18:35:37Z</time>
      </trkpt>
      <trkpt lat="56.89106414671" lon="14.925593422727">
        <ele>197</ele>
        <time>2020-01-30T18:35:38Z</time>
      </trkpt>
      <trkpt lat="56.890881840385" lon="14.92552695426">
        <ele>196</ele>
        <time>2020-01-30T18:35:45Z</time>
      </trkpt>
      <trkpt lat="56.890851330269" lon="14.925522511853">
        <ele>195.8</ele>
        <time>2020-01-30T18:35:46Z</time>
      </trkpt>
      <trkpt lat="56.890701545716" lon="14.925349593256">
        <ele>195</ele>
        <time>2020-01-30T18:35:55Z</time>
      </trkpt>
      <trkpt lat="56.890621750028" lon="14.925233336303">
        <ele>194.6</ele>
        <time>2020-01-30T18:35:59Z</time>
      </trkpt>
      <trkpt lat="56.890562657633" lon="14.925159407945">
        <ele>194.2</ele>
        <time>2020-01-30T18:36:02Z</time>
      </trkpt>
      <trkpt lat="56.890481856117" lon="14.925091179279">
        <ele>193.6</ele>
        <time>2020-01-30T18:36:06Z</time>
      </trkpt>
      <trkpt lat="56.890402395705" lon="14.924984058597">
        <ele>193</ele>
        <time>2020-01-30T18:36:11Z</time>
      </trkpt>
      <trkpt lat="56.890373226693" lon="14.924865538531">
        <ele>192.6</ele>
        <time>2020-01-30T18:36:15Z</time>
      </trkpt>
      <trkpt lat="56.890373059055" lon="14.924839554641">
        <ele>192.4</ele>
        <time>2020-01-30T18:36:16Z</time>
      </trkpt>
      <trkpt lat="56.890365682983" lon="14.924815079493">
        <ele>192.2</ele>
        <time>2020-01-30T18:36:17Z</time>
      </trkpt>
      <trkpt lat="56.890358893644" lon="14.92474492299">
        <ele>191.6</ele>
        <time>2020-01-30T18:36:19Z</time>
      </trkpt>
      <trkpt lat="56.890325952777" lon="14.924691027373">
        <ele>191</ele>
        <time>2020-01-30T18:36:21Z</time>
      </trkpt>
      <trkpt lat="56.890258813758" lon="14.924682980749">
        <ele>190.6</ele>
        <time>2020-01-30T18:36:25Z</time>
      </trkpt>
      <trkpt lat="56.890195027499" lon="14.924714161417">
        <ele>189.2</ele>
        <time>2020-01-30T18:36:29Z</time>
      </trkpt>
      <trkpt lat="56.890188070522" lon="14.924707288259">
        <ele>188.8</ele>
        <time>2020-01-30T18:36:30Z</time>
      </trkpt>
      <trkpt lat="56.8901681216" lon="14.924702259119">
        <ele>188</ele>
        <time>2020-01-30T18:36:32Z</time>
      </trkpt>
      <trkpt lat="56.890149597601" lon="14.924494890913">
        <ele>187.8</ele>
        <time>2020-01-30T18:36:48Z</time>
      </trkpt>
      <trkpt lat="56.890150268153" lon="14.92445826201">
        <ele>188</ele>
        <time>2020-01-30T18:36:50Z</time>
      </trkpt>
      <trkpt lat="56.890154794379" lon="14.924414592311">
        <ele>188</ele>
        <time>2020-01-30T18:36:52Z</time>
      </trkpt>
      <trkpt lat="56.890202990304" lon="14.924334796623">
        <ele>188.2</ele>
        <time>2020-01-30T18:36:57Z</time>
      </trkpt>
      <trkpt lat="56.890287396037" lon="14.924040340476">
        <ele>187.8</ele>
        <time>2020-01-30T18:37:05Z</time>
      </trkpt>
      <trkpt lat="56.890361156757" lon="14.923828697501">
        <ele>187</ele>
        <time>2020-01-30T18:37:11Z</time>
      </trkpt>
      <trkpt lat="56.890474815321" lon="14.923559303235">
        <ele>187</ele>
        <time>2020-01-30T18:37:18Z</time>
      </trkpt>
      <trkpt lat="56.890564250194" lon="14.923261159052">
        <ele>186.6</ele>
        <time>2020-01-30T18:37:26Z</time>
      </trkpt>
      <trkpt lat="56.890668437211" lon="14.923125623729">
        <ele>186.6</ele>
        <time>2020-01-30T18:37:34Z</time>
      </trkpt>
      <trkpt lat="56.89070288682" lon="14.92309871783">
        <ele>186.8</ele>
        <time>2020-01-30T18:37:36Z</time>
      </trkpt>
      <trkpt lat="56.890870021906" lon="14.92288497938">
        <ele>187.4</ele>
        <time>2020-01-30T18:37:44Z</time>
      </trkpt>
      <trkpt lat="56.89098451866" lon="14.922623380281">
        <ele>186.6</ele>
        <time>2020-01-30T18:37:49Z</time>
      </trkpt>
      <trkpt lat="56.891056686819" lon="14.922391453108">
        <ele>186</ele>
        <time>2020-01-30T18:37:54Z</time>
      </trkpt>
      <trkpt lat="56.891064817262" lon="14.922358260784">
        <ele>185.8</ele>
        <time>2020-01-30T18:37:55Z</time>
      </trkpt>
      <trkpt lat="56.891098931595" lon="14.92224376403">
        <ele>184.8</ele>
        <time>2020-01-30T18:37:58Z</time>
      </trkpt>
      <trkpt lat="56.891147630434" lon="14.922185426006">
        <ele>183.8</ele>
        <time>2020-01-30T18:38:01Z</time>
      </trkpt>
      <trkpt lat="56.891158945999" lon="14.922151395492">
        <ele>183.8</ele>
        <time>2020-01-30T18:38:02Z</time>
      </trkpt>
      <trkpt lat="56.891164813329" lon="14.922083585921">
        <ele>183.4</ele>
        <time>2020-01-30T18:38:04Z</time>
      </trkpt>
      <trkpt lat="56.891173446686" lon="14.922010076658">
        <ele>182.8</ele>
        <time>2020-01-30T18:38:06Z</time>
      </trkpt>
      <trkpt lat="56.891184091699" lon="14.921966826054">
        <ele>182.4</ele>
        <time>2020-01-30T18:38:07Z</time>
      </trkpt>
      <trkpt lat="56.891199011481" lon="14.921877055905">
        <ele>181.2</ele>
        <time>2020-01-30T18:38:10Z</time>
      </trkpt>
      <trkpt lat="56.891221642611" lon="14.921744957161">
        <ele>180</ele>
        <time>2020-01-30T18:38:13Z</time>
      </trkpt>
      <trkpt lat="56.891252320365" lon="14.92163607628">
        <ele>178.4</ele>
        <time>2020-01-30T18:38:16Z</time>
      </trkpt>
      <trkpt lat="56.891274364762" lon="14.921538930059">
        <ele>176.8</ele>
        <time>2020-01-30T18:38:18Z</time>
      </trkpt>
      <trkpt lat="56.891280818825" lon="14.921444466046">
        <ele>175.6</ele>
        <time>2020-01-30T18:38:20Z</time>
      </trkpt>
      <trkpt lat="56.891283501033" lon="14.921357294286">
        <ele>175.2</ele>
        <time>2020-01-30T18:38:22Z</time>
      </trkpt>
      <trkpt lat="56.89127872335" lon="14.921285042308">
        <ele>174.4</ele>
        <time>2020-01-30T18:38:24Z</time>
      </trkpt>
      <trkpt lat="56.891256176039" lon="14.921185549155">
        <ele>173</ele>
        <time>2020-01-30T18:38:27Z</time>
      </trkpt>
      <trkpt lat="56.891255170211" lon="14.921124696561">
        <ele>172</ele>
        <time>2020-01-30T18:38:29Z</time>
      </trkpt>
      <trkpt lat="56.891235891841" lon="14.921012211463">
        <ele>171.2</ele>
        <time>2020-01-30T18:38:33Z</time>
      </trkpt>
      <trkpt lat="56.891239747515" lon="14.920942557874">
        <ele>170.8</ele>
        <time>2020-01-30T18:38:36Z</time>
      </trkpt>
      <trkpt lat="56.891223318991" lon="14.920777685901">
        <ele>171</ele>
        <time>2020-01-30T18:38:43Z</time>
      </trkpt>
      <trkpt lat="56.891225582104" lon="14.920707529398">
        <ele>171</ele>
        <time>2020-01-30T18:38:46Z</time>
      </trkpt>
      <trkpt lat="56.891240920981" lon="14.920648017908">
        <ele>170.8</ele>
        <time>2020-01-30T18:38:50Z</time>
      </trkpt>
      <trkpt lat="56.891237987316" lon="14.920585321296">
        <ele>170.4</ele>
        <time>2020-01-30T18:38:53Z</time>
      </trkpt>
      <trkpt lat="56.891238909325" lon="14.92056319308">
        <ele>170.2</ele>
        <time>2020-01-30T18:38:55Z</time>
      </trkpt>
      <trkpt lat="56.891228934864" lon="14.920500915563">
        <ele>170</ele>
        <time>2020-01-30T18:38:58Z</time>
      </trkpt>
      <trkpt lat="56.891213260711" lon="14.920440230607">
        <ele>170</ele>
        <time>2020-01-30T18:39:00Z</time>
      </trkpt>
      <trkpt lat="56.891207812476" lon="14.92041148069">
        <ele>170</ele>
        <time>2020-01-30T18:39:02Z</time>
      </trkpt>
      <trkpt lat="56.891202280422" lon="14.920327996966">
        <ele>170.4</ele>
        <time>2020-01-30T18:39:05Z</time>
      </trkpt>
      <trkpt lat="56.891216613471" lon="14.920214589859">
        <ele>170.6</ele>
        <time>2020-01-30T18:39:09Z</time>
      </trkpt>
      <trkpt lat="56.891212673978" lon="14.920161197156">
        <ele>170.6</ele>
        <time>2020-01-30T18:39:11Z</time>
      </trkpt>
      <trkpt lat="56.89121082996" lon="14.920097494716">
        <ele>170.6</ele>
        <time>2020-01-30T18:39:14Z</time>
      </trkpt>
      <trkpt lat="56.891212338702" lon="14.92004016252">
        <ele>170.2</ele>
        <time>2020-01-30T18:39:17Z</time>
      </trkpt>
      <trkpt lat="56.891196748368" lon="14.919963971049">
        <ele>170.2</ele>
        <time>2020-01-30T18:39:20Z</time>
      </trkpt>
      <trkpt lat="56.891187528278" lon="14.919891467614">
        <ele>170.4</ele>
        <time>2020-01-30T18:39:23Z</time>
      </trkpt>
      <trkpt lat="56.891182080043" lon="14.919860370765">
        <ele>170.6</ele>
        <time>2020-01-30T18:39:25Z</time>
      </trkpt>
      <trkpt lat="56.891159029818" lon="14.919790884814">
        <ele>171</ele>
        <time>2020-01-30T18:39:29Z</time>
      </trkpt>
      <trkpt lat="56.891163639863" lon="14.919728691116">
        <ele>171.2</ele>
        <time>2020-01-30T18:39:32Z</time>
      </trkpt>
      <trkpt lat="56.891197670377" lon="14.919639591519">
        <ele>172</ele>
        <time>2020-01-30T18:39:37Z</time>
      </trkpt>
      <trkpt lat="56.891190294305" lon="14.919570692301">
        <ele>172.2</ele>
        <time>2020-01-30T18:39:45Z</time>
      </trkpt>
      <trkpt lat="56.891180152206" lon="14.919559795831">
        <ele>172.6</ele>
        <time>2020-01-30T18:39:47Z</time>
      </trkpt>
      <trkpt lat="56.891177218541" lon="14.919456447004">
        <ele>172</ele>
        <time>2020-01-30T18:39:53Z</time>
      </trkpt>
      <trkpt lat="56.891154168316" lon="14.919398695713">
        <ele>171.8</ele>
        <time>2020-01-30T18:39:55Z</time>
      </trkpt>
      <trkpt lat="56.891133884118" lon="14.919323174794">
        <ele>172</ele>
        <time>2020-01-30T18:39:58Z</time>
      </trkpt>
      <trkpt lat="56.891100943251" lon="14.919229213695">
        <ele>173</ele>
        <time>2020-01-30T18:40:05Z</time>
      </trkpt>
      <trkpt lat="56.890983429013" lon="14.919115890407">
        <ele>173.2</ele>
        <time>2020-01-30T18:40:22Z</time>
      </trkpt>
      <trkpt lat="56.890959624417" lon="14.919112705285">
        <ele>174</ele>
        <time>2020-01-30T18:40:24Z</time>
      </trkpt>
      <trkpt lat="56.890922911695" lon="14.919120081357">
        <ele>173.6</ele>
        <time>2020-01-30T18:40:27Z</time>
      </trkpt>
      <trkpt lat="56.890897011624" lon="14.919079764418">
        <ele>173.6</ele>
        <time>2020-01-30T18:40:30Z</time>
      </trkpt>
      <trkpt lat="56.890867674974" lon="14.919008182992">
        <ele>173.6</ele>
        <time>2020-01-30T18:40:32Z</time>
      </trkpt>
      <trkpt lat="56.890725015036" lon="14.918801233881">
        <ele>174</ele>
        <time>2020-01-30T18:40:40Z</time>
      </trkpt>
      <trkpt lat="56.890657205465" lon="14.918734849233">
        <ele>174</ele>
        <time>2020-01-30T18:40:43Z</time>
      </trkpt>
      <trkpt lat="56.89049333932" lon="14.918530247054">
        <ele>175</ele>
        <time>2020-01-30T18:40:50Z</time>
      </trkpt>
      <trkpt lat="56.89046819362" lon="14.918514991996">
        <ele>175</ele>
        <time>2020-01-30T18:40:51Z</time>
      </trkpt>
      <trkpt lat="56.890387140647" lon="14.918428490788">
        <ele>176</ele>
        <time>2020-01-30T18:40:55Z</time>
      </trkpt>
      <trkpt lat="56.890333496487" lon="14.918383982899">
        <ele>176</ele>
        <time>2020-01-30T18:40:57Z</time>
      </trkpt>
      <trkpt lat="56.890184466305" lon="14.918158928884">
        <ele>176.4</ele>
        <time>2020-01-30T18:41:06Z</time>
      </trkpt>
      <trkpt lat="56.890047506059" lon="14.917991207065">
        <ele>175.8</ele>
        <time>2020-01-30T18:41:16Z</time>
      </trkpt>
      <trkpt lat="56.890034765571" lon="14.917954829619">
        <ele>175.6</ele>
        <time>2020-01-30T18:41:19Z</time>
      </trkpt>
      <trkpt lat="56.889997214659" lon="14.91793462924">
        <ele>175.6</ele>
        <time>2020-01-30T18:41:22Z</time>
      </trkpt>
      <trkpt lat="56.889937786988" lon="14.917917949259">
        <ele>175.6</ele>
        <time>2020-01-30T18:41:25Z</time>
      </trkpt>
      <trkpt lat="56.889872994901" lon="14.917865646203">
        <ele>175.6</ele>
        <time>2020-01-30T18:41:29Z</time>
      </trkpt>
      <trkpt lat="56.889849190305" lon="14.917881655632">
        <ele>175.6</ele>
        <time>2020-01-30T18:41:31Z</time>
      </trkpt>
      <trkpt lat="56.889815746524" lon="14.917897329785">
        <ele>175.8</ele>
        <time>2020-01-30T18:41:33Z</time>
      </trkpt>
      <trkpt lat="56.889664034134" lon="14.917860114149">
        <ele>175.8</ele>
        <time>2020-01-30T18:41:41Z</time>
      </trkpt>
      <trkpt lat="56.889620196797" lon="14.91787427956">
        <ele>175.6</ele>
        <time>2020-01-30T18:41:43Z</time>
      </trkpt>
      <trkpt lat="56.889504526577" lon="14.917861958167">
        <ele>175.2</ele>
        <time>2020-01-30T18:41:48Z</time>
      </trkpt>
      <trkpt lat="56.889469322597" lon="14.917878554329">
        <ele>175</ele>
        <time>2020-01-30T18:41:51Z</time>
      </trkpt>
      <trkpt lat="56.889470496063" lon="14.917843015073">
        <ele>173.8</ele>
        <time>2020-01-30T18:42:02Z</time>
      </trkpt>
      <trkpt lat="56.889554734158" lon="14.917743102825">
        <ele>174</ele>
        <time>2020-01-30T18:42:08Z</time>
      </trkpt>
      <trkpt lat="56.889734442094" lon="14.917666156983">
        <ele>174.4</ele>
        <time>2020-01-30T18:42:16Z</time>
      </trkpt>
      <trkpt lat="56.889771909187" lon="14.917621062361">
        <ele>175</ele>
        <time>2020-01-30T18:42:19Z</time>
      </trkpt>
      <trkpt lat="56.889943067585" lon="14.917497680793">
        <ele>174.8</ele>
        <time>2020-01-30T18:42:26Z</time>
      </trkpt>
      <trkpt lat="56.890116908191" lon="14.917353260656">
        <ele>175</ele>
        <time>2020-01-30T18:42:33Z</time>
      </trkpt>
      <trkpt lat="56.89031480485" lon="14.917333898467">
        <ele>174.2</ele>
        <time>2020-01-30T18:42:44Z</time>
      </trkpt>
      <trkpt lat="56.8905117795" lon="14.917327695861">
        <ele>174</ele>
        <time>2020-01-30T18:42:53Z</time>
      </trkpt>
      <trkpt lat="56.890541786702" lon="14.917321996169">
        <ele>174</ele>
        <time>2020-01-30T18:42:55Z</time>
      </trkpt>
      <trkpt lat="56.890567602954" lon="14.917298275392">
        <ele>173.8</ele>
        <time>2020-01-30T18:42:57Z</time>
      </trkpt>
      <trkpt lat="56.890741946474" lon="14.917203392284">
        <ele>173.6</ele>
        <time>2020-01-30T18:43:05Z</time>
      </trkpt>
      <trkpt lat="56.890796680281" lon="14.91715762711">
        <ele>173.4</ele>
        <time>2020-01-30T18:43:09Z</time>
      </trkpt>
      <trkpt lat="56.890930371586" lon="14.916935171484">
        <ele>173.4</ele>
        <time>2020-01-30T18:43:17Z</time>
      </trkpt>
      <trkpt lat="56.890983512832" lon="14.916771975891">
        <ele>173.6</ele>
        <time>2020-01-30T18:43:22Z</time>
      </trkpt>
      <trkpt lat="56.891042018494" lon="14.916708189632">
        <ele>172.8</ele>
        <time>2020-01-30T18:43:25Z</time>
      </trkpt>
      <trkpt lat="56.891152240479" lon="14.916562344572">
        <ele>173</ele>
        <time>2020-01-30T18:43:31Z</time>
      </trkpt>
      <trkpt lat="56.891352819346" lon="14.916514148647">
        <ele>173</ele>
        <time>2020-01-30T18:43:36Z</time>
      </trkpt>
      <trkpt lat="56.891361285065" lon="14.916531415361">
        <ele>172.8</ele>
        <time>2020-01-30T18:43:37Z</time>
      </trkpt>
      <trkpt lat="56.891471087955" lon="14.916783710551">
        <ele>173.4</ele>
        <time>2020-01-30T18:43:48Z</time>
      </trkpt>
      <trkpt lat="56.891519619156" lon="14.916904577549">
        <ele>173.8</ele>
        <time>2020-01-30T18:43:52Z</time>
      </trkpt>
      <trkpt lat="56.891600672129" lon="14.917033910266">
        <ele>175.2</ele>
        <time>2020-01-30T18:43:56Z</time>
      </trkpt>
      <trkpt lat="56.891741823325" lon="14.917259551014">
        <ele>175.8</ele>
        <time>2020-01-30T18:44:06Z</time>
      </trkpt>
      <trkpt lat="56.891812566561" lon="14.917307160206">
        <ele>176.2</ele>
        <time>2020-01-30T18:44:10Z</time>
      </trkpt>
      <trkpt lat="56.891970146281" lon="14.91738729117">
        <ele>177.4</ele>
        <time>2020-01-30T18:44:16Z</time>
      </trkpt>
      <trkpt lat="56.892075339126" lon="14.917426937557">
        <ele>177.4</ele>
        <time>2020-01-30T18:44:20Z</time>
      </trkpt>
      <trkpt lat="56.892105933061" lon="14.917474546749">
        <ele>177.6</ele>
        <time>2020-01-30T18:44:23Z</time>
      </trkpt>
      <trkpt lat="56.892207186413" lon="14.91759264772">
        <ele>178.8</ele>
        <time>2020-01-30T18:44:28Z</time>
      </trkpt>
      <trkpt lat="56.892315229104" lon="14.91770412699">
        <ele>179.8</ele>
        <time>2020-01-30T18:44:32Z</time>
      </trkpt>
      <trkpt lat="56.892492590108" lon="14.917904873495">
        <ele>180.2</ele>
        <time>2020-01-30T18:44:39Z</time>
      </trkpt>
      <trkpt lat="56.892555035263" lon="14.918006294485">
        <ele>181</ele>
        <time>2020-01-30T18:44:42Z</time>
      </trkpt>
      <trkpt lat="56.892637596978" lon="14.918140321066">
        <ele>182</ele>
        <time>2020-01-30T18:44:46Z</time>
      </trkpt>
      <trkpt lat="56.892753770112" lon="14.918404350916">
        <ele>182.4</ele>
        <time>2020-01-30T18:44:53Z</time>
      </trkpt>
      <trkpt lat="56.892906153054" lon="14.918620603936">
        <ele>182.8</ele>
        <time>2020-01-30T18:44:59Z</time>
      </trkpt>
      <trkpt lat="56.89302970226" lon="14.918857560249">
        <ele>183.2</ele>
        <time>2020-01-30T18:45:05Z</time>
      </trkpt>
      <trkpt lat="56.893072617588" lon="14.918966189673">
        <ele>183.2</ele>
        <time>2020-01-30T18:45:09Z</time>
      </trkpt>
      <trkpt lat="56.893105558455" lon="14.918988988441">
        <ele>183.2</ele>
        <time>2020-01-30T18:45:11Z</time>
      </trkpt>
      <trkpt lat="56.893184851229" lon="14.918899805025">
        <ele>183.6</ele>
        <time>2020-01-30T18:45:15Z</time>
      </trkpt>
      <trkpt lat="56.893381155327" lon="14.918982199102">
        <ele>184.2</ele>
        <time>2020-01-30T18:45:23Z</time>
      </trkpt>
      <trkpt lat="56.893587769162" lon="14.918994604314">
        <ele>184.8</ele>
        <time>2020-01-30T18:45:31Z</time>
      </trkpt>
      <trkpt lat="56.89363906639" lon="14.919021929308">
        <ele>185.6</ele>
        <time>2020-01-30T18:45:33Z</time>
      </trkpt>
      <trkpt lat="56.893704696667" lon="14.919044560438">
        <ele>186.6</ele>
        <time>2020-01-30T18:45:36Z</time>
      </trkpt>
      <trkpt lat="56.893785917278" lon="14.919104071928">
        <ele>187</ele>
        <time>2020-01-30T18:45:40Z</time>
      </trkpt>
      <trkpt lat="56.893867976079" lon="14.91919442881">
        <ele>187.4</ele>
        <time>2020-01-30T18:45:47Z</time>
      </trkpt>
      <trkpt lat="56.89388381787" lon="14.91923633831">
        <ele>187.6</ele>
        <time>2020-01-30T18:45:50Z</time>
      </trkpt>
      <trkpt lat="56.893922542248" lon="14.91952048472">
        <ele>187.6</ele>
        <time>2020-01-30T18:45:56Z</time>
      </trkpt>
      <trkpt lat="56.893954142011" lon="14.919628275954">
        <ele>188.6</ele>
        <time>2020-01-30T18:45:58Z</time>
      </trkpt>
      <trkpt lat="56.893971660182" lon="14.919740509595">
        <ele>189.6</ele>
        <time>2020-01-30T18:46:00Z</time>
      </trkpt>
      <trkpt lat="56.893975851132" lon="14.920096572707">
        <ele>190.6</ele>
        <time>2020-01-30T18:46:06Z</time>
      </trkpt>
      <trkpt lat="56.893985406498" lon="14.920148121392">
        <ele>190.8</ele>
        <time>2020-01-30T18:46:07Z</time>
      </trkpt>
      <trkpt lat="56.894046510549" lon="14.920471243637">
        <ele>191.2</ele>
        <time>2020-01-30T18:46:14Z</time>
      </trkpt>
      <trkpt lat="56.894028238007" lon="14.920808028379">
        <ele>190.2</ele>
        <time>2020-01-30T18:46:21Z</time>
      </trkpt>
      <trkpt lat="56.893949448147" lon="14.921065855623">
        <ele>190.8</ele>
        <time>2020-01-30T18:46:29Z</time>
      </trkpt>
      <trkpt lat="56.893920782049" lon="14.921141879456">
        <ele>192</ele>
        <time>2020-01-30T18:46:32Z</time>
      </trkpt>
      <trkpt lat="56.893916926375" lon="14.921180017101">
        <ele>192.6</ele>
        <time>2020-01-30T18:46:34Z</time>
      </trkpt>
      <trkpt lat="56.893939473686" lon="14.921214801986">
        <ele>193.4</ele>
        <time>2020-01-30T18:46:36Z</time>
      </trkpt>
      <trkpt lat="56.893947939405" lon="14.921247659034">
        <ele>193.4</ele>
        <time>2020-01-30T18:46:38Z</time>
      </trkpt>
      <trkpt lat="56.893980125901" lon="14.921299375357">
        <ele>194</ele>
        <time>2020-01-30T18:46:41Z</time>
      </trkpt>
      <trkpt lat="56.893995464778" lon="14.921322257944">
        <ele>194.2</ele>
        <time>2020-01-30T18:46:43Z</time>
      </trkpt>
      <trkpt lat="56.894011390388" lon="14.921336674812">
        <ele>194.4</ele>
        <time>2020-01-30T18:46:44Z</time>
      </trkpt>
      <trkpt lat="56.894027818912" lon="14.921367771661">
        <ele>195.2</ele>
        <time>2020-01-30T18:46:46Z</time>
      </trkpt>
      <trkpt lat="56.894040056486" lon="14.921385708927">
        <ele>195.6</ele>
        <time>2020-01-30T18:46:47Z</time>
      </trkpt>
      <trkpt lat="56.894060592141" lon="14.921418063061">
        <ele>195.8</ele>
        <time>2020-01-30T18:46:49Z</time>
      </trkpt>
      <trkpt lat="56.894073500267" lon="14.921441448562">
        <ele>196</ele>
        <time>2020-01-30T18:46:51Z</time>
      </trkpt>
      <trkpt lat="56.894106105858" lon="14.9214499981">
        <ele>196.2</ele>
        <time>2020-01-30T18:46:53Z</time>
      </trkpt>
      <trkpt lat="56.894168299556" lon="14.921481514044">
        <ele>196.4</ele>
        <time>2020-01-30T18:46:55Z</time>
      </trkpt>
      <trkpt lat="56.894194702541" lon="14.921485788813">
        <ele>196.6</ele>
        <time>2020-01-30T18:46:57Z</time>
      </trkpt>
      <trkpt lat="56.894243904294" lon="14.921470366117">
        <ele>197</ele>
        <time>2020-01-30T18:47:00Z</time>
      </trkpt>
      <trkpt lat="56.894397125426" lon="14.921283030652">
        <ele>197</ele>
        <time>2020-01-30T18:47:10Z</time>
      </trkpt>
      <trkpt lat="56.894417325805" lon="14.921249586871">
        <ele>197.2</ele>
        <time>2020-01-30T18:47:12Z</time>
      </trkpt>
      <trkpt lat="56.894446913912" lon="14.921184124232">
        <ele>196.4</ele>
        <time>2020-01-30T18:47:16Z</time>
      </trkpt>
      <trkpt lat="56.894464599721" lon="14.921151015727">
        <ele>195.8</ele>
        <time>2020-01-30T18:47:18Z</time>
      </trkpt>
      <trkpt lat="56.894478346037" lon="14.921114554462">
        <ele>195.6</ele>
        <time>2020-01-30T18:47:20Z</time>
      </trkpt>
      <trkpt lat="56.894484548643" lon="14.921101227241">
        <ele>195.4</ele>
        <time>2020-01-30T18:47:21Z</time>
      </trkpt>
      <trkpt lat="56.894501731538" lon="14.921073231695">
        <ele>195.2</ele>
        <time>2020-01-30T18:47:23Z</time>
      </trkpt>
      <trkpt lat="56.894538276622" lon="14.921005589762">
        <ele>194.4</ele>
        <time>2020-01-30T18:47:27Z</time>
      </trkpt>
      <trkpt lat="56.894556968259" lon="14.920964769909">
        <ele>194.6</ele>
        <time>2020-01-30T18:47:30Z</time>
      </trkpt>
      <trkpt lat="56.894609774229" lon="14.920879525986">
        <ele>195</ele>
        <time>2020-01-30T18:47:36Z</time>
      </trkpt>
      <trkpt lat="56.894633746463" lon="14.920842226531">
        <ele>195.2</ele>
        <time>2020-01-30T18:47:38Z</time>
      </trkpt>
      <trkpt lat="56.894689653736" lon="14.920767962897">
        <ele>195.6</ele>
        <time>2020-01-30T18:47:41Z</time>
      </trkpt>
      <trkpt lat="56.894735335091" lon="14.920693363987">
        <ele>196.8</ele>
        <time>2020-01-30T18:47:44Z</time>
      </trkpt>
      <trkpt lat="56.894750422511" lon="14.920671654866">
        <ele>197.2</ele>
        <time>2020-01-30T18:47:45Z</time>
      </trkpt>
      <trkpt lat="56.894850083302" lon="14.920502172848">
        <ele>196.6</ele>
        <time>2020-01-30T18:47:51Z</time>
      </trkpt>
      <trkpt lat="56.89489718958" lon="14.920484989953">
        <ele>195.6</ele>
        <time>2020-01-30T18:47:53Z</time>
      </trkpt>
      <trkpt lat="56.894977404363" lon="14.920458838425">
        <ele>194.4</ele>
        <time>2020-01-30T18:47:57Z</time>
      </trkpt>
      <trkpt lat="56.895141186689" lon="14.920397902012">
        <ele>193.2</ele>
        <time>2020-01-30T18:48:07Z</time>
      </trkpt>
      <trkpt lat="56.895226765888" lon="14.920325398577">
        <ele>191.8</ele>
        <time>2020-01-30T18:48:12Z</time>
      </trkpt>
      <trkpt lat="56.895251324855" lon="14.920304024732">
        <ele>190.6</ele>
        <time>2020-01-30T18:48:15Z</time>
      </trkpt>
      <trkpt lat="56.895264987352" lon="14.920278124661">
        <ele>190.6</ele>
        <time>2020-01-30T18:48:17Z</time>
      </trkpt>
      <trkpt lat="56.895277979297" lon="14.920236466618">
        <ele>190.8</ele>
        <time>2020-01-30T18:48:19Z</time>
      </trkpt>
      <trkpt lat="56.895291557975" lon="14.920172931816">
        <ele>191.2</ele>
        <time>2020-01-30T18:48:22Z</time>
      </trkpt>
      <trkpt lat="56.89540597091" lon="14.919901777351">
        <ele>191.2</ele>
        <time>2020-01-30T18:48:37Z</time>
      </trkpt>
      <trkpt lat="56.895449472971" lon="14.919885851741">
        <ele>191.8</ele>
        <time>2020-01-30T18:48:39Z</time>
      </trkpt>
      <trkpt lat="56.895523149872" lon="14.919834051599">
        <ele>193</ele>
        <time>2020-01-30T18:48:42Z</time>
      </trkpt>
      <trkpt lat="56.895591294719" lon="14.919744868183">
        <ele>194.2</ele>
        <time>2020-01-30T18:48:46Z</time>
      </trkpt>
      <trkpt lat="56.89565072239" lon="14.919700779389">
        <ele>195.2</ele>
        <time>2020-01-30T18:48:49Z</time>
      </trkpt>
      <trkpt lat="56.895685255818" lon="14.919661216821">
        <ele>195.6</ele>
        <time>2020-01-30T18:48:51Z</time>
      </trkpt>
      <trkpt lat="56.895700343238" lon="14.919563148591">
        <ele>196.2</ele>
        <time>2020-01-30T18:48:54Z</time>
      </trkpt>
      <trkpt lat="56.895702354894" lon="14.919476312107">
        <ele>196.4</ele>
        <time>2020-01-30T18:48:56Z</time>
      </trkpt>
      <trkpt lat="56.895731943001" lon="14.919413280219">
        <ele>196.8</ele>
        <time>2020-01-30T18:48:58Z</time>
      </trkpt>
      <trkpt lat="56.895804781712" lon="14.91935536129">
        <ele>197.4</ele>
        <time>2020-01-30T18:49:01Z</time>
      </trkpt>
      <trkpt lat="56.895843003176" lon="14.91936458138">
        <ele>197.6</ele>
        <time>2020-01-30T18:49:03Z</time>
      </trkpt>
      <trkpt lat="56.895928917651" lon="14.919402383749">
        <ele>198.4</ele>
        <time>2020-01-30T18:49:07Z</time>
      </trkpt>
      <trkpt lat="56.896030171003" lon="14.919397773704">
        <ele>199.6</ele>
        <time>2020-01-30T18:49:12Z</time>
      </trkpt>
      <trkpt lat="56.896130083251" lon="14.919380423171">
        <ele>200.8</ele>
        <time>2020-01-30T18:49:16Z</time>
      </trkpt>
      <trkpt lat="56.896237120114" lon="14.919369442882">
        <ele>202</ele>
        <time>2020-01-30T18:49:20Z</time>
      </trkpt>
      <trkpt lat="56.896325130064" lon="14.919338178395">
        <ele>203.2</ele>
        <time>2020-01-30T18:49:24Z</time>
      </trkpt>
      <trkpt lat="56.89643107728" lon="14.919314206161">
        <ele>204.6</ele>
        <time>2020-01-30T18:49:28Z</time>
      </trkpt>
      <trkpt lat="56.896589998104" lon="14.919263579485">
        <ele>205.6</ele>
        <time>2020-01-30T18:49:35Z</time>
      </trkpt>
      <trkpt lat="56.896686892868" lon="14.919240445441">
        <ele>206.8</ele>
        <time>2020-01-30T18:49:39Z</time>
      </trkpt>
      <trkpt lat="56.896814465386" lon="14.919237511776">
        <ele>207.8</ele>
        <time>2020-01-30T18:49:44Z</time>
      </trkpt>
      <trkpt lat="56.896965926319" lon="14.919209432411">
        <ele>209</ele>
        <time>2020-01-30T18:49:51Z</time>
      </trkpt>
      <trkpt lat="56.8971670081" lon="14.919193506801">
        <ele>209.4</ele>
        <time>2020-01-30T18:49:58Z</time>
      </trkpt>
      <trkpt lat="56.897365994406" lon="14.919164505427">
        <ele>209.8</ele>
        <time>2020-01-30T18:50:06Z</time>
      </trkpt>
      <trkpt lat="56.897380662731" lon="14.919167522911">
        <ele>210</ele>
        <time>2020-01-30T18:50:07Z</time>
      </trkpt>
      <trkpt lat="56.897578727028" lon="14.919115806588">
        <ele>210.6</ele>
        <time>2020-01-30T18:50:16Z</time>
      </trkpt>
      <trkpt lat="56.897726248468" lon="14.919167271454">
        <ele>210.8</ele>
        <time>2020-01-30T18:50:23Z</time>
      </trkpt>
      <trkpt lat="56.897759105516" lon="14.919270285005">
        <ele>210.2</ele>
        <time>2020-01-30T18:50:28Z</time>
      </trkpt>
      <trkpt lat="56.897762793552" lon="14.919296855628">
        <ele>210.2</ele>
        <time>2020-01-30T18:50:30Z</time>
      </trkpt>
      <trkpt lat="56.897782993931" lon="14.919338346033">
        <ele>210.2</ele>
        <time>2020-01-30T18:50:32Z</time>
      </trkpt>
      <trkpt lat="56.897788777442" lon="14.919390229994">
        <ele>210.2</ele>
        <time>2020-01-30T18:50:35Z</time>
      </trkpt>
      <trkpt lat="56.897778970619" lon="14.919450579674">
        <ele>209.8</ele>
        <time>2020-01-30T18:50:38Z</time>
      </trkpt>
      <trkpt lat="56.897761703905" lon="14.919526016774">
        <ele>209.6</ele>
        <time>2020-01-30T18:50:42Z</time>
      </trkpt>
      <trkpt lat="56.897755752756" lon="14.919602459702">
        <ele>209.2</ele>
        <time>2020-01-30T18:50:45Z</time>
      </trkpt>
      <trkpt lat="56.897747622313" lon="14.919691810756">
        <ele>209</ele>
        <time>2020-01-30T18:50:49Z</time>
      </trkpt>
      <trkpt lat="56.897753405824" lon="14.919717710827">
        <ele>209</ele>
        <time>2020-01-30T18:50:50Z</time>
      </trkpt>
      <trkpt lat="56.897783664483" lon="14.919820137645">
        <ele>209</ele>
        <time>2020-01-30T18:50:53Z</time>
      </trkpt>
      <trkpt lat="56.897774109117" lon="14.91991275764">
        <ele>209</ele>
        <time>2020-01-30T18:50:56Z</time>
      </trkpt>
      <trkpt lat="56.897804954509" lon="14.919982997962">
        <ele>208.8</ele>
        <time>2020-01-30T18:50:59Z</time>
      </trkpt>
      <trkpt lat="56.897820293386" lon="14.92002339872">
        <ele>208.6</ele>
        <time>2020-01-30T18:51:02Z</time>
      </trkpt>
      <trkpt lat="56.897820377205" lon="14.920070421179">
        <ele>208.4</ele>
        <time>2020-01-30T18:51:06Z</time>
      </trkpt>
      <trkpt lat="56.897829848752" lon="14.920098668182">
        <ele>208.4</ele>
        <time>2020-01-30T18:51:08Z</time>
      </trkpt>
      <trkpt lat="56.89786689675" lon="14.920150300686">
        <ele>208.4</ele>
        <time>2020-01-30T18:51:11Z</time>
      </trkpt>
      <trkpt lat="56.897877457944" lon="14.920177458042">
        <ele>208.8</ele>
        <time>2020-01-30T18:51:13Z</time>
      </trkpt>
      <trkpt lat="56.897886091301" lon="14.920203693389">
        <ele>209</ele>
        <time>2020-01-30T18:51:15Z</time>
      </trkpt>
      <trkpt lat="56.897935795968" lon="14.920302599809">
        <ele>209.8</ele>
        <time>2020-01-30T18:51:23Z</time>
      </trkpt>
      <trkpt lat="56.898108966022" lon="14.920352472114">
        <ele>209.8</ele>
        <time>2020-01-30T18:51:31Z</time>
      </trkpt>
      <trkpt lat="56.898154144463" lon="14.920353310304">
        <ele>210.2</ele>
        <time>2020-01-30T18:51:33Z</time>
      </trkpt>
      <trkpt lat="56.898348353086" lon="14.920368481543">
        <ele>210.6</ele>
        <time>2020-01-30T18:51:41Z</time>
      </trkpt>
      <trkpt lat="56.898455725225" lon="14.920355405779">
        <ele>211.2</ele>
        <time>2020-01-30T18:51:46Z</time>
      </trkpt>
      <trkpt lat="56.898535688551" lon="14.920340485997">
        <ele>211.6</ele>
        <time>2020-01-30T18:51:51Z</time>
      </trkpt>
      <trkpt lat="56.898565779572" lon="14.920333193744">
        <ele>211.8</ele>
        <time>2020-01-30T18:51:53Z</time>
      </trkpt>
      <trkpt lat="56.898634427333" lon="14.920329505708">
        <ele>211.8</ele>
        <time>2020-01-30T18:51:56Z</time>
      </trkpt>
      <trkpt lat="56.898739787816" lon="14.920317687229">
        <ele>212.2</ele>
        <time>2020-01-30T18:51:59Z</time>
      </trkpt>
      <trkpt lat="56.898835341476" lon="14.920321207627">
        <ele>212.2</ele>
        <time>2020-01-30T18:52:02Z</time>
      </trkpt>
      <trkpt lat="56.898877921528" lon="14.920295307556">
        <ele>212.6</ele>
        <time>2020-01-30T18:52:06Z</time>
      </trkpt>
      <trkpt lat="56.89889200312" lon="14.920287260932">
        <ele>212.6</ele>
        <time>2020-01-30T18:52:07Z</time>
      </trkpt>
      <trkpt lat="56.898940031407" lon="14.920273430797">
        <ele>212.8</ele>
        <time>2020-01-30T18:52:11Z</time>
      </trkpt>
    </trkseg>
  </trk>
</gpx>